Time;durP1;ratioP1;P1;durP2;ratioP2;P2;SDS_P1;SDS_P2;PMS_P1;PMS_P2;Temp;Humidity;BMP_temperature;BMP_pressure;BME280_temperature;BME280_humidity;BME280_pressure;Samples;Min_cycle;Max_cycle;Signal;HPM_P1;HPM_P2
2021/03/07 00:00:17;;;;;;;58.33;30.00;;;77.40;1331.20;;;;;;4864022;29;20048;-73
2021/03/07 00:02:43;;;;;;;60.83;30.85;;;77.40;1331.20;;;;;;4863399;29;20044;-72
2021/03/07 00:05:11;;;;;;;73.18;34.80;;;77.40;1356.80;;;;;;4863909;29;20476;-72
2021/03/07 00:07:37;;;;;;;70.70;33.80;;;77.40;1356.80;;;;;;4863502;29;20054;-73
2021/03/07 00:10:05;;;;;;;83.63;35.75;;;77.40;1331.20;;;;;;4863740;29;20157;-73
2021/03/07 00:12:59;;;;;;;69.53;34.83;;;77.40;1331.20;;;;;;4863681;29;20049;-72
2021/03/07 00:15:25;;;;;;;76.57;32.78;;;77.50;1331.20;;;;;;4862773;29;20062;-75
2021/03/07 00:17:52;;;;;;;79.40;36.45;;;77.40;1331.20;;;;;;4863570;29;20101;-73
2021/03/07 00:20:21;;;;;;;74.97;34.17;;;77.40;1331.20;;;;;;4863764;29;20033;-72
2021/03/07 00:22:47;;;;;;;74.68;33.53;;;77.40;1331.20;;;;;;4863819;29;20112;-71
2021/03/07 00:25:15;;;;;;;65.55;33.55;;;77.40;1331.20;;;;;;4863618;29;20428;-72
2021/03/07 00:27:41;;;;;;;70.13;34.10;;;77.40;1331.20;;;;;;4863177;29;20041;-73
2021/03/07 00:30:10;;;;;;;70.43;35.63;;;77.30;1331.20;;;;;;4863320;29;20033;-74
2021/03/07 00:32:36;;;;;;;77.25;35.72;;;77.40;1331.20;;;;;;4862175;29;20056;-72
2021/03/07 00:35:03;;;;;;;68.85;36.45;;;77.30;1305.60;;;;;;4863649;29;20029;-71
2021/03/07 00:37:28;;;;;;;71.03;34.03;;;77.30;1305.60;;;;;;4863146;29;20029;-70
2021/03/07 00:39:54;;;;;;;68.68;34.17;;;77.30;1305.60;;;;;;4863129;29;20094;-71
2021/03/07 00:42:20;;;;;;;79.45;34.17;;;77.30;1305.60;;;;;;4863082;29;20037;-70
2021/03/07 00:44:45;;;;;;;77.03;35.17;;;77.40;1305.60;;;;;;4863250;29;20029;-72
2021/03/07 00:47:13;;;;;;;63.78;32.67;;;77.40;1305.60;;;;;;4862291;29;20033;-71
2021/03/07 00:49:39;;;;;;;73.03;34.85;;;77.30;1305.60;;;;;;4863126;29;20053;-71
2021/03/07 00:52:05;;;;;;;72.07;32.90;;;77.30;1305.60;;;;;;4863118;29;20530;-71
2021/03/07 00:54:30;;;;;;;76.68;34.85;;;77.30;1305.60;;;;;;4863086;29;20032;-71
2021/03/07 00:56:56;;;;;;;78.15;35.47;;;77.30;1305.60;;;;;;4862895;29;20460;-72
2021/03/07 00:59:23;;;;;;;85.45;41.88;;;77.30;1305.60;;;;;;4862913;29;20033;-72
2021/03/07 01:01:49;;;;;;;81.97;42.58;;;77.30;1305.60;;;;;;4862959;29;20037;-72
2021/03/07 01:04:14;;;;;;;95.63;47.40;;;77.20;1331.20;;;;;;4862729;29;20030;-72
2021/03/07 01:06:40;;;;;;;98.30;46.13;;;77.20;1331.20;;;;;;4862790;29;20044;-72
2021/03/07 01:09:06;;;;;;;96.22;46.55;;;77.20;1331.20;;;;;;4862742;29;20030;-72
2021/03/07 01:11:32;;;;;;;102.68;48.80;;;77.20;1331.20;;;;;;4862934;29;20040;-69
2021/03/07 01:13:58;;;;;;;98.80;48.40;;;77.10;1331.20;;;;;;4862429;29;20487;-72
2021/03/07 01:16:24;;;;;;;101.07;47.85;;;77.10;1331.20;;;;;;4862486;29;20129;-73
2021/03/07 01:18:50;;;;;;;89.40;44.72;;;77.10;1331.20;;;;;;4862481;29;20519;-72
2021/03/07 01:21:16;;;;;;;92.85;46.42;;;77.10;1331.20;;;;;;4862257;29;20449;-73
2021/03/07 01:23:42;;;;;;;102.68;46.58;;;77.10;1331.20;;;;;;4862044;29;20068;-73
2021/03/07 01:26:07;;;;;;;86.45;42.45;;;77.10;1356.80;;;;;;4862839;29;20041;-78
2021/03/07 01:28:33;;;;;;;92.90;43.22;;;77.00;1356.80;;;;;;4862667;29;20034;-79
2021/03/07 01:30:59;;;;;;;92.72;44.25;;;77.00;1356.80;;;;;;4862868;29;20036;-74
2021/03/07 01:33:25;;;;;;;84.97;42.40;;;77.00;1356.80;;;;;;4862119;29;20110;-72
2021/03/07 01:35:51;;;;;;;90.15;42.50;;;77.00;1356.80;;;;;;4862325;29;20052;-71
2021/03/07 01:38:17;;;;;;;87.78;41.88;;;77.00;1356.80;;;;;;4862150;29;20033;-70
2021/03/07 01:40:49;;;;;;;74.57;38.45;;;77.00;1356.80;;;;;;4862246;29;20068;-71
2021/03/07 01:43:17;;;;;;;85.82;37.95;;;77.00;1356.80;;;;;;4862245;29;20085;-74
2021/03/07 01:45:43;;;;;;;69.22;35.60;;;76.90;1356.80;;;;;;4862397;29;20037;-75
2021/03/07 01:48:11;;;;;;;68.00;34.28;;;76.90;1356.80;;;;;;4862094;29;20029;-75
2021/03/07 01:50:39;;;;;;;68.78;36.05;;;76.90;1356.80;;;;;;4862049;29;20025;-75
2021/03/07 01:53:06;;;;;;;85.40;34.85;;;76.90;1356.80;;;;;;4862090;29;20116;-76
2021/03/07 01:55:34;;;;;;;78.75;34.70;;;76.90;1356.80;;;;;;4862103;29;20033;-75
2021/03/07 01:58:18;;;;;;;69.68;34.00;;;76.90;1356.80;;;;;;4861302;29;20029;-73
2021/03/07 02:00:45;;;;;;;63.50;34.55;;;76.90;1382.40;;;;;;4861970;29;20116;-76
2021/03/07 02:03:11;;;;;;;70.32;33.72;;;76.90;1356.80;;;;;;4862081;29;20469;-76
2021/03/07 02:05:37;;;;;;;68.63;33.63;;;76.80;1382.40;;;;;;4862155;29;20029;-76
2021/03/07 02:08:04;;;;;;;64.28;31.88;;;76.80;1382.40;;;;;;4861726;29;20105;-76
2021/03/07 02:10:31;;;;;;;53.95;29.08;;;76.80;1382.40;;;;;;4862009;29;20488;-76
2021/03/07 02:13:05;;;;;;;58.80;29.63;;;76.80;1382.40;;;;;;4861878;29;20369;-76
2021/03/07 02:15:32;;;;;;;56.78;27.83;;;76.80;1382.40;;;;;;4861951;29;20025;-77
2021/03/07 02:17:59;;;;;;;54.97;28.83;;;52.10;1408.00;;;;;;4861457;29;20033;-77
2021/03/07 02:20:27;;;;;;;61.97;29.13;;;52.10;1408.00;;;;;;4862033;29;20036;-76
2021/03/07 02:23:07;;;;;;;68.30;32.15;;;52.10;1408.00;;;;;;4861375;29;20574;-75
2021/03/07 02:25:34;;;;;;;59.58;30.98;;;52.10;1408.00;;;;;;4861864;29;20032;-76
2021/03/07 02:28:00;;;;;;;68.75;31.85;;;52.10;1408.00;;;;;;4861797;29;20038;-76
2021/03/07 02:30:27;;;;;;;73.30;35.00;;;52.00;1408.00;;;;;;4861941;29;20079;-76
2021/03/07 02:33:01;;;;;;;68.93;34.38;;;52.00;1408.00;;;;;;4861572;29;20049;-76
2021/03/07 02:35:29;;;;;;;85.78;36.15;;;52.00;1408.00;;;;;;4861637;29;20082;-75
2021/03/07 02:38:01;;;;;;;69.25;35.40;;;52.00;1433.60;;;;;;4861636;29;20061;-76
2021/03/07 02:40:29;;;;;;;71.22;35.88;;;52.00;1433.60;;;;;;4861646;29;20048;-62
2021/03/07 02:42:58;;;;;;;71.00;34.35;;;51.90;1433.60;;;;;;4861284;29;20112;-63
2021/03/07 02:45:24;;;;;;;67.40;35.55;;;51.90;1433.60;;;;;;4861039;29;20038;-70
2021/03/07 02:47:52;;;;;;;74.30;38.38;;;51.90;1433.60;;;;;;4861427;29;20093;-72
2021/03/07 02:50:25;;;;;;;76.68;38.63;;;51.90;1433.60;;;;;;4861316;29;20113;-67
2021/03/07 02:53:02;;;;;;;82.57;39.00;;;51.90;1433.60;;;;;;4861213;29;20034;-72
2021/03/07 02:55:31;;;;;;;80.03;38.75;;;51.90;1433.60;;;;;;4861699;29;20158;-76
2021/03/07 02:58:01;;;;;;;82.05;41.35;;;51.90;1433.60;;;;;;4861201;29;20491;-73
2021/03/07 03:00:28;;;;;;;94.13;42.50;;;51.90;1433.60;;;;;;4861397;29;20125;-73
2021/03/07 03:02:55;;;;;;;92.13;43.95;;;51.80;1459.20;;;;;;4861295;29;20034;-75
2021/03/07 03:05:21;;;;;;;95.70;46.28;;;51.80;1459.20;;;;;;4861163;29;20487;-73
2021/03/07 03:07:47;;;;;;;93.82;46.70;;;51.80;1459.20;;;;;;4861060;29;20061;-72
2021/03/07 03:10:14;;;;;;;100.47;44.88;;;51.80;1484.80;;;;;;4864103;29;20032;-72
2021/03/07 03:12:41;;;;;;;91.75;44.38;;;51.80;1484.80;;;;;;4864339;29;20038;-72
2021/03/07 03:15:10;;;;;;;95.82;44.58;;;51.70;1484.80;;;;;;4864645;29;20116;-72
2021/03/07 03:17:38;;;;;;;93.13;42.58;;;51.70;1484.80;;;;;;4864638;29;20044;-73
2021/03/07 03:20:13;;;;;;;86.70;40.83;;;51.70;1484.80;;;;;;4864723;29;20392;-72
2021/03/07 03:22:39;;;;;;;83.07;40.92;;;51.70;1484.80;;;;;;4864789;29;20032;-72
2021/03/07 03:25:06;;;;;;;81.70;40.13;;;51.70;1484.80;;;;;;4864784;29;20078;-70
2021/03/07 03:27:34;;;;;;;89.18;43.08;;;51.70;1510.40;;;;;;4864594;29;20025;-71
2021/03/07 03:30:10;;;;;;;88.18;41.25;;;51.70;1510.40;;;;;;4864507;29;20100;-70
2021/03/07 03:32:36;;;;;;;86.03;39.47;;;51.70;1510.40;;;;;;4864116;29;20050;-72
2021/03/07 03:35:10;;;;;;;86.22;42.08;;;51.70;1536.00;;;;;;4864447;29;20033;-71
2021/03/07 03:37:37;;;;;;;84.47;42.38;;;51.70;1536.00;;;;;;4864328;29;20037;-71
2021/03/07 03:40:05;;;;;;;85.53;42.83;;;51.60;1536.00;;;;;;4864372;29;20120;-72
2021/03/07 03:42:31;;;;;;;103.55;47.95;;;51.60;1536.00;;;;;;4864309;29;20392;-71
2021/03/07 03:44:59;;;;;;;95.60;45.90;;;51.60;1536.00;;;;;;4864171;29;20033;-72
2021/03/07 03:47:27;;;;;;;96.57;47.40;;;51.60;1536.00;;;;;;4864013;29;20029;-72
2021/03/07 03:49:54;;;;;;;99.00;47.47;;;51.60;1561.60;;;;;;4864191;29;20076;-71
2021/03/07 03:52:24;;;;;;;103.57;49.88;;;51.60;1536.00;;;;;;4862674;29;20049;-70
2021/03/07 03:55:03;;;;;;;113.43;51.97;;;51.60;1561.60;;;;;;4864032;29;20032;-70
2021/03/07 03:57:31;;;;;;;111.82;51.05;;;51.60;1536.00;;;;;;4864048;29;20069;-70
2021/03/07 03:59:59;;;;;;;120.72;56.10;;;51.50;1536.00;;;;;;4864007;29;20042;-69
2021/03/07 04:02:29;;;;;;;126.85;59.17;;;51.50;1536.00;;;;;;4863812;29;20070;-70
2021/03/07 04:04:57;;;;;;;126.53;59.58;;;51.50;1561.60;;;;;;4863879;29;20121;-70
2021/03/07 04:07:25;;;;;;;133.98;62.92;;;51.50;1561.60;;;;;;4863929;29;20030;-68
2021/03/07 04:09:53;;;;;;;128.30;60.17;;;51.50;1587.20;;;;;;4863818;29;20104;-69
2021/03/07 04:12:20;;;;;;;132.07;62.00;;;51.40;1587.20;;;;;;4863627;29;20041;-70
2021/03/07 04:14:46;;;;;;;141.43;65.43;;;51.40;1587.20;;;;;;4863799;29;20033;-70
2021/03/07 04:17:14;;;;;;;145.25;67.22;;;51.40;1587.20;;;;;;4863559;29;20028;-69
2021/03/07 04:19:40;;;;;;;146.02;66.63;;;51.40;1587.20;;;;;;4863581;29;20116;-70
2021/03/07 04:22:06;;;;;;;150.70;69.85;;;51.40;1587.20;;;;;;4862562;29;20030;-69
2021/03/07 04:24:33;;;;;;;140.80;67.82;;;51.40;1587.20;;;;;;4863171;29;20029;-70
2021/03/07 04:26:59;;;;;;;148.63;68.65;;;51.40;1587.20;;;;;;4863544;29;20030;-70
2021/03/07 04:29:25;;;;;;;150.13;71.72;;;51.30;1587.20;;;;;;4863564;29;20030;-70
2021/03/07 04:31:52;;;;;;;149.10;70.82;;;51.30;1587.20;;;;;;4863423;29;20033;-69
2021/03/07 04:34:18;;;;;;;145.88;69.32;;;51.30;1612.80;;;;;;4863183;29;20188;-70
2021/03/07 04:36:45;;;;;;;144.18;68.03;;;51.30;1612.80;;;;;;4863160;29;20433;-68
2021/03/07 04:39:11;;;;;;;142.30;68.38;;;51.30;1612.80;;;;;;4863281;29;20104;-69
2021/03/07 04:41:37;;;;;;;139.20;67.50;;;51.30;1612.80;;;;;;4863232;29;20021;-69
2021/03/07 04:44:03;;;;;;;139.65;62.95;;;51.30;1612.80;;;;;;4863170;29;20166;-70
2021/03/07 04:46:28;;;;;;;155.75;69.80;;;51.30;1612.80;;;;;;4863066;29;20484;-70
2021/03/07 04:48:56;;;;;;;176.65;74.57;;;51.30;1612.80;;;;;;4862978;29;20033;-69
2021/03/07 04:51:22;;;;;;;169.57;74.50;;;51.20;1612.80;;;;;;4863090;29;20037;-76
2021/03/07 04:53:48;;;;;;;161.00;74.28;;;51.20;1612.80;;;;;;4862868;29;20124;-73
2021/03/07 04:56:14;;;;;;;155.25;68.05;;;51.20;1612.80;;;;;;4861761;29;20166;-69
2021/03/07 04:58:40;;;;;;;151.48;68.45;;;51.20;1612.80;;;;;;4862828;29;20480;-74
2021/03/07 05:01:06;;;;;;;148.20;66.55;;;51.20;1612.80;;;;;;4862954;29;20032;-69
2021/03/07 05:03:32;;;;;;;139.48;65.95;;;51.20;1612.80;;;;;;4862734;29;20491;-72
2021/03/07 05:05:58;;;;;;;141.93;68.05;;;51.20;1612.80;;;;;;4862884;29;20030;-73
2021/03/07 05:08:25;;;;;;;143.63;67.00;;;51.20;1612.80;;;;;;4862562;29;20026;-70
2021/03/07 05:10:52;;;;;;;146.95;63.72;;;51.20;1612.80;;;;;;4862736;29;20118;-70
2021/03/07 05:13:18;;;;;;;144.35;63.40;;;51.20;1612.80;;;;;;4862579;29;20048;-70
2021/03/07 05:15:43;;;;;;;156.63;65.63;;;26.50;1587.20;;;;;;4862530;29;20409;-70
2021/03/07 05:18:09;;;;;;;153.57;66.32;;;26.50;1587.20;;;;;;4862532;29;20361;-70
2021/03/07 05:20:35;;;;;;;152.25;70.00;;;26.50;1587.20;;;;;;4862474;29;20109;-70
2021/03/07 05:23:01;;;;;;;138.50;65.25;;;26.50;1587.20;;;;;;4862406;29;20061;-70
2021/03/07 05:25:26;;;;;;;149.93;69.15;;;51.20;1612.80;;;;;;4862482;29;20042;-70
2021/03/07 05:27:53;;;;;;;174.57;70.45;;;26.50;1587.20;;;;;;4862465;29;20443;-73
2021/03/07 05:30:19;;;;;;;189.02;76.22;;;51.20;1612.80;;;;;;4862214;29;20496;-74
2021/03/07 05:32:45;;;;;;;179.48;76.85;;;51.20;1612.80;;;;;;4861854;29;20053;-76
2021/03/07 05:35:11;;;;;;;175.13;75.35;;;51.20;1612.80;;;;;;4863690;29;20028;-78
2021/03/07 05:37:37;;;;;;;180.50;75.30;;;51.20;1612.80;;;;;;4862841;29;20025;-77
2021/03/07 05:40:05;;;;;;;182.38;74.13;;;51.20;1638.40;;;;;;4862737;29;20499;-78
2021/03/07 05:42:30;;;;;;;182.05;76.35;;;51.20;1638.40;;;;;;4862638;29;20485;-79
2021/03/07 05:44:56;;;;;;;179.57;75.35;;;51.30;1638.40;;;;;;4862403;29;20060;-81
2021/03/07 05:47:22;;;;;;;168.93;76.13;;;51.30;1638.40;;;;;;4862737;29;20120;-80
2021/03/07 05:49:47;;;;;;;164.23;71.53;;;51.30;1638.40;;;;;;4862672;29;20040;-81
2021/03/07 05:52:13;;;;;;;168.25;74.50;;;51.40;1638.40;;;;;;4862538;29;20044;-75
2021/03/07 05:54:40;;;;;;;181.90;76.70;;;51.40;1664.00;;;;;;4861886;29;20026;-73
2021/03/07 05:57:07;;;;;;;256.13;97.38;;;51.40;1638.40;;;;;;4861883;29;20036;-70
2021/03/07 05:59:35;;;;;;;347.55;119.95;;;51.50;1638.40;;;;;;4862036;29;20053;-73
2021/03/07 06:02:02;;;;;;;363.48;132.35;;;51.50;1638.40;;;;;;4861922;29;20108;-72
2021/03/07 06:04:29;;;;;;;356.05;127.07;;;51.60;1638.40;;;;;;4862102;29;20097;-73
2021/03/07 06:07:11;;;;;;;313.70;116.07;;;51.60;1664.00;;;;;;4861825;29;20038;-73
2021/03/07 06:09:36;;;;;;;287.52;107.40;;;51.60;1664.00;;;;;;4862119;29;20029;-74
2021/03/07 06:12:12;;;;;;;240.55;102.40;;;51.60;1689.60;;;;;;4861577;29;20098;-74
2021/03/07 06:14:38;;;;;;;241.20;103.40;;;51.50;1689.60;;;;;;4861442;29;20057;-74
2021/03/07 06:17:13;;;;;;;209.20;96.78;;;51.50;1715.20;;;;;;4861106;29;20049;-71
2021/03/07 06:20:19;;;;;;;172.98;82.75;;;51.50;1689.60;;;;;;4861571;29;20080;-67
2021/03/07 06:23:03;;;;;;;155.55;74.95;;;51.50;1689.60;;;;;;4840792;29;20026;-73
2021/03/07 06:25:29;;;;;;;132.07;67.10;;;51.60;1715.20;;;;;;4841162;29;20083;-73
2021/03/07 06:27:57;;;;;;;124.85;63.88;;;51.60;1689.60;;;;;;4840776;29;20108;-70
2021/03/07 06:30:30;;;;;;;109.18;56.05;;;51.70;1689.60;;;;;;4841033;29;20049;-73
2021/03/07 06:32:58;;;;;;;101.40;52.60;;;51.80;1664.00;;;;;;4840781;29;20065;-73
2021/03/07 06:35:29;;;;;;;103.85;51.15;;;51.90;1638.40;;;;;;4839807;29;20030;-73
2021/03/07 06:38:00;;;;;;;103.32;50.15;;;51.90;1638.40;;;;;;4839333;29;20040;-73
2021/03/07 06:40:39;;;;;;;100.97;48.85;;;52.00;1638.40;;;;;;4839429;29;20033;-71
2021/03/07 06:43:22;;;;;;;105.82;50.17;;;52.10;1612.80;;;;;;4839424;29;20044;-73
2021/03/07 06:45:48;;;;;;;89.85;44.13;;;76.80;1612.80;;;;;;4839878;29;20528;-73
2021/03/07 06:48:14;;;;;;;87.55;42.95;;;76.90;1587.20;;;;;;4843961;29;20030;-72
2021/03/07 06:50:53;;;;;;;82.43;41.65;;;77.00;1587.20;;;;;;4843164;29;20045;-73
2021/03/07 06:53:39;;;;;;;82.43;40.22;;;77.10;1561.60;;;;;;4842798;29;20041;-72
2021/03/07 06:56:05;;;;;;;84.82;39.65;;;77.10;1561.60;;;;;;4849718;29;20038;-72
2021/03/07 06:58:32;;;;;;;98.88;42.40;;;77.20;1561.60;;;;;;4865302;29;20045;-72
2021/03/07 07:00:58;;;;;;;101.25;44.60;;;77.30;1561.60;;;;;;4864937;29;20487;-62
2021/03/07 07:03:24;;;;;;;91.93;41.25;;;77.40;1536.00;;;;;;4865125;29;20026;-78
2021/03/07 07:05:52;;;;;;;99.97;44.00;;;77.60;1510.40;;;;;;4865015;29;20057;-73
2021/03/07 07:08:39;;;;;;;80.18;36.17;;;77.70;1510.40;;;;;;4864970;29;20025;-77
2021/03/07 07:11:06;;;;;;;75.32;33.55;;;102.50;1510.40;;;;;;4864922;29;20487;-76
2021/03/07 07:13:46;;;;;;;74.15;33.63;;;102.70;1459.20;;;;;;4864985;29;20473;-79
2021/03/07 07:16:13;;;;;;;87.13;36.80;;;102.90;1459.20;;;;;;4865154;29;20465;-77
2021/03/07 07:18:41;;;;;;;120.57;47.53;;;103.20;1408.00;;;;;;4865091;29;20101;-79
2021/03/07 07:21:10;;;;;;;126.65;47.00;;;128.00;1408.00;;;;;;4864993;29;20029;-79
2021/03/07 07:23:36;;;;;;;129.77;48.92;;;128.30;1382.40;;;;;;4865002;29;20018;-79
2021/03/07 07:26:02;;;;;;;132.63;48.88;;;128.70;1356.80;;;;;;4864933;29;20540;-77
2021/03/07 07:28:28;;;;;;;107.68;43.22;;;153.60;1356.80;;;;;;4864844;29;20036;-77
2021/03/07 07:31:16;;;;;;;80.53;35.60;;;153.90;1305.60;;;;;;4865003;29;20052;-78
2021/03/07 07:33:51;;;;;;;70.95;31.25;;;154.20;1305.60;;;;;;4864383;29;20060;-77
2021/03/07 07:36:41;;;;;;;60.88;28.27;;;179.20;1254.40;;;;;;4864580;29;20025;-78
2021/03/07 07:39:11;;;;;;;38.03;21.13;;;179.60;1228.80;;;;;;4864700;29;20189;-79
2021/03/07 07:41:39;;;;;;;31.83;17.92;;;179.90;1203.20;;;;;;4864666;29;20029;-79
2021/03/07 07:44:07;;;;;;;35.72;19.23;;;204.80;1152.00;;;;;;4864814;29;20096;-74
2021/03/07 07:46:34;;;;;;;35.38;18.20;;;205.10;1152.00;;;;;;4864610;29;20124;-78
2021/03/07 07:49:00;;;;;;;32.17;17.65;;;205.50;1126.40;;;;;;4864262;29;20042;-78
2021/03/07 07:51:35;;;;;;;24.85;15.48;;;205.70;1100.80;;;;;;4864319;29;20029;-78
2021/03/07 07:54:01;;;;;;;;;;;230.60;1075.20;;;;;;4864756;29;20041;-78
2021/03/07 07:56:34;;;;;;;23.70;13.57;;;230.90;1049.60;;;;;;4864284;29;19912;-79
2021/03/07 07:59:00;;;;;;;19.70;13.27;;;231.10;1024.00;;;;;;4864246;29;20032;-78
2021/03/07 08:01:55;;;;;;;22.95;13.05;;;231.30;998.40;;;;;;4864337;29;20034;-77
2021/03/07 08:04:41;;;;;;;19.38;11.98;;;256.30;998.40;;;;;;4864022;29;20037;-78
2021/03/07 08:07:09;;;;;;;18.17;11.38;;;256.60;972.80;;;;;;4863886;29;20086;-78
2021/03/07 08:09:44;;;;;;;14.18;10.65;;;256.90;947.20;;;;;;4863939;29;20476;-77
2021/03/07 08:12:33;;;;;;;18.90;11.05;;;281.80;947.20;;;;;;4863793;29;20045;-77
2021/03/07 08:14:59;;;;;;;18.83;11.52;;;282.10;921.60;;;;;;4861878;29;20056;-78
2021/03/07 08:17:53;;;;;;;19.52;12.02;;;282.40;896.00;;;;;;4861734;29;20416;-78
2021/03/07 08:20:37;;;;;;;17.00;11.77;;;307.20;896.00;;;;;;4861760;29;20059;-77
2021/03/07 08:23:03;;;;;;;23.97;13.07;;;307.50;844.80;;;;;;4861662;29;20029;-74
2021/03/07 08:25:47;;;;;;;21.52;13.40;;;307.70;844.80;;;;;;4861332;29;20510;-77
2021/03/07 08:28:28;;;;;;;27.25;15.23;;;307.90;844.80;;;;;;4861761;29;20104;-77
2021/03/07 08:31:01;;;;;;;23.13;14.77;;;332.80;844.80;;;;;;4861418;29;20397;-77
2021/03/07 08:33:35;;;;;;;25.38;14.45;;;332.90;844.80;;;;;;4861316;29;20060;-77
2021/03/07 08:36:19;;;;;;;24.10;14.40;;;333.20;819.20;;;;;;4861493;29;20089;-76
2021/03/07 08:38:56;;;;;;;23.00;12.85;;;333.40;819.20;;;;;;4861393;29;20467;-76
2021/03/07 08:41:46;;;;;;;17.75;12.05;;;333.50;793.60;;;;;;4861233;29;20034;-77
2021/03/07 08:44:14;;;;;;;20.55;11.85;;;333.70;768.00;;;;;;4806435;29;20103;-76
2021/03/07 08:46:39;;;;;;;18.15;10.70;;;358.50;742.40;;;;;;4806431;29;20493;-75
2021/03/07 08:49:12;;;;;;;17.85;11.52;;;358.50;716.80;;;;;;4806610;29;20129;-77
2021/03/07 08:51:42;;;;;;;14.02;8.80;;;358.70;742.40;;;;;;4806144;29;20046;-76
2021/03/07 08:54:16;;;;;;;13.23;9.30;;;358.90;716.80;;;;;;4806178;29;20049;-77
2021/03/07 08:56:43;;;;;;;14.52;8.65;;;359.10;716.80;;;;;;4806289;29;20046;-78
2021/03/07 08:59:10;;;;;;;15.82;9.38;;;359.20;691.20;;;;;;4806164;29;20066;-76
2021/03/07 09:01:37;;;;;;;15.30;9.13;;;359.30;665.60;;;;;;4806128;29;20063;-75
2021/03/07 09:04:05;;;;;;;16.05;8.55;;;384.00;665.60;;;;;;4806088;29;20035;-77
2021/03/07 09:06:33;;;;;;;12.07;8.57;;;384.20;665.60;;;;;;4805978;29;20110;-74
2021/03/07 09:09:05;;;;;;;12.35;8.73;;;384.30;640.00;;;;;;4805469;29;20039;-77
2021/03/07 09:11:32;;;;;;;12.13;8.30;;;384.40;640.00;;;;;;4805988;29;20134;-78
2021/03/07 09:13:58;;;;;;;12.90;8.20;;;384.50;640.00;;;;;;4805806;29;20127;-77
2021/03/07 09:16:39;;;;;;;11.02;7.93;;;384.60;640.00;;;;;;4805743;29;20471;-78
2021/03/07 09:19:34;;;;;;;10.90;7.65;;;384.70;614.40;;;;;;4805743;29;20131;-76
2021/03/07 09:22:25;;;;;;;31.98;10.18;;;384.80;640.00;;;;;;4802026;29;20050;-66
2021/03/07 09:24:53;;;;;;;23.88;9.25;;;384.90;665.60;;;;;;4805663;29;20027;-72
2021/03/07 09:27:20;;;;;;;18.08;8.00;;;409.60;665.60;;;;;;4805671;29;20046;-71
2021/03/07 09:30:06;;;;;;;13.80;6.75;;;409.60;640.00;;;;;;4805510;29;20046;-72
2021/03/07 09:32:39;;;;;;;11.95;6.28;;;409.80;614.40;;;;;;4805177;29;20070;-72
2021/03/07 09:35:25;;;;;;;7.70;5.10;;;409.90;614.40;;;;;;4805541;29;20074;-72
2021/03/07 09:37:59;;;;;;;8.85;5.07;;;410.00;614.40;;;;;;4805202;29;20155;-72
2021/03/07 09:40:25;;;;;;;7.95;5.30;;;410.10;588.80;;;;;;4805377;29;20034;-68
2021/03/07 09:42:56;;;;;;;7.53;5.75;;;410.10;588.80;;;;;;4805736;29;20497;-72
2021/03/07 09:45:23;;;;;;;10.13;6.40;;;410.20;588.80;;;;;;4820173;29;20425;-72
2021/03/07 09:47:49;;;;;;;9.93;6.75;;;410.30;588.80;;;;;;4805288;29;20074;-71
2021/03/07 09:50:16;;;;;;;10.68;6.88;;;410.50;588.80;;;;;;4805285;29;20035;-71
2021/03/07 09:52:44;;;;;;;10.90;6.25;;;435.20;588.80;;;;;;4805035;29;20054;-72
2021/03/07 09:55:11;;;;;;;8.00;5.57;;;435.20;588.80;;;;;;4805086;29;20064;-71
2021/03/07 09:57:38;;;;;;;8.18;5.10;;;435.30;563.20;;;;;;4814897;29;20042;-72
2021/03/07 10:00:04;;;;;;;8.98;5.13;;;435.30;537.60;;;;;;4861933;29;20056;-71
2021/03/07 10:02:37;;;;;;;7.05;4.90;;;435.40;537.60;;;;;;4861750;29;20037;-69
2021/03/07 10:05:13;;;;;;;6.72;4.82;;;435.40;563.20;;;;;;4861824;29;20025;-71
2021/03/07 10:07:39;;;;;;;6.60;4.35;;;435.40;537.60;;;;;;4861334;29;20511;-75
2021/03/07 10:10:25;;;;;;;6.20;4.75;;;435.40;537.60;;;;;;4861771;29;20029;-74
2021/03/07 10:12:59;;;;;;;12.32;5.72;;;435.40;537.60;;;;;;4861658;29;20453;-73
2021/03/07 10:15:39;;;;;;;9.00;5.20;;;435.60;537.60;;;;;;4861711;29;20030;-74
2021/03/07 10:18:13;;;;;;;11.85;5.93;;;435.60;537.60;;;;;;4861763;29;20038;-74
2021/03/07 10:20:44;;;;;;;9.38;5.95;;;435.60;512.00;;;;;;4860979;29;20028;-74
2021/03/07 10:23:11;;;;;;;6.90;5.28;;;435.70;537.60;;;;;;4862043;29;20065;-73
2021/03/07 10:25:39;;;;;;;8.63;5.85;;;435.70;537.60;;;;;;4861706;29;20464;-74
2021/03/07 10:28:12;;;;;;;8.02;5.93;;;435.70;512.00;;;;;;4861991;29;20058;-73
2021/03/07 10:30:42;;;;;;;10.07;5.68;;;435.80;537.60;;;;;;4861575;29;20037;-75
2021/03/07 10:33:23;;;;;;;12.93;6.32;;;435.80;537.60;;;;;;4861324;29;20042;-74
2021/03/07 10:35:58;;;;;;;13.57;8.13;;;435.80;537.60;;;;;;4861502;29;20503;-72
2021/03/07 10:38:24;;;;;;;18.88;9.52;;;435.80;537.60;;;;;;4860933;29;20045;-72
2021/03/07 10:40:50;;;;;;;13.38;8.10;;;435.90;512.00;;;;;;4860449;29;20041;-67
2021/03/07 10:43:16;;;;;;;19.27;11.38;;;435.90;512.00;;;;;;4861148;29;20108;-63
2021/03/07 10:45:41;;;;;;;13.70;7.45;;;435.90;512.00;;;;;;4861283;29;20112;-62
2021/03/07 10:48:12;;;;;;;10.27;6.75;;;436.00;512.00;;;;;;4875507;29;20129;-64
2021/03/07 10:50:47;;;;;;;11.63;6.45;;;435.90;512.00;;;;;;4861057;29;20034;-71
2021/03/07 10:53:13;;;;;;;;;;;435.90;512.00;;;;;;4843124;29;20034;-72
2021/03/07 10:55:39;;;;;;;6.40;5.15;;;435.90;537.60;;;;;;4842751;29;20260;-72
2021/03/07 10:58:06;;;;;;;10.00;6.10;;;435.90;512.00;;;;;;4842904;29;20045;-69
2021/03/07 11:00:32;;;;;;;7.15;4.90;;;435.90;512.00;;;;;;4840917;29;20038;-68
2021/03/07 11:02:59;;;;;;;9.90;5.90;;;435.90;512.00;;;;;;4840306;29;20144;-69
2021/03/07 11:05:24;;;;;;;11.60;6.18;;;435.90;512.00;;;;;;4841951;29;20033;-70
2021/03/07 11:07:51;;;;;;;9.20;5.78;;;435.90;512.00;;;;;;4841705;29;20034;-67
2021/03/07 11:10:19;;;;;;;12.77;7.43;;;435.90;512.00;;;;;;4841041;29;20026;-65
2021/03/07 11:12:45;;;;;;;14.23;7.90;;;435.90;512.00;;;;;;4859547;29;20038;-63
2021/03/07 11:15:12;;;;;;;10.65;6.50;;;435.90;512.00;;;;;;4860337;29;20034;-63
2021/03/07 11:17:38;;;;;;;10.48;6.88;;;435.90;512.00;;;;;;4859768;29;20510;-61
2021/03/07 11:20:07;;;;;;;17.25;8.05;;;436.00;486.40;;;;;;4860164;29;20036;-62
2021/03/07 11:22:33;;;;;;;25.17;8.00;;;436.00;512.00;;;;;;4859908;29;20059;-63
2021/03/07 11:24:58;;;;;;;19.17;7.25;;;436.00;486.40;;;;;;4860057;29;20029;-61
2021/03/07 11:27:24;;;;;;;12.20;7.38;;;435.90;486.40;;;;;;4860194;29;20477;-61
2021/03/07 11:29:50;;;;;;;14.77;8.50;;;435.70;486.40;;;;;;4860183;29;20033;-62
2021/03/07 11:32:16;;;;;;;8.82;6.13;;;435.60;486.40;;;;;;4862605;29;20098;-61
2021/03/07 11:34:42;;;;;;;10.60;6.43;;;435.60;486.40;;;;;;4863493;29;20471;-62
2021/03/07 11:37:08;;;;;;;11.45;5.28;;;435.60;486.40;;;;;;4877614;29;20069;-61
2021/03/07 11:39:33;;;;;;;9.20;6.43;;;435.50;486.40;;;;;;4862947;29;20050;-64
2021/03/07 11:41:59;;;;;;;13.45;8.82;;;435.40;486.40;;;;;;4863389;29;20026;-63
2021/03/07 11:44:26;;;;;;;9.45;7.60;;;435.30;486.40;;;;;;4863542;29;20454;-61
2021/03/07 11:46:53;;;;;;;18.73;10.25;;;435.20;512.00;;;;;;4862746;29;20441;-61
2021/03/07 11:49:20;;;;;;;15.25;8.15;;;410.40;512.00;;;;;;4863344;29;20045;-61
2021/03/07 11:51:46;;;;;;;19.75;8.50;;;410.40;512.00;;;;;;4863031;29;20021;-61
2021/03/07 11:54:13;;;;;;;16.58;7.15;;;410.40;512.00;;;;;;4862563;29;20453;-61
2021/03/07 11:56:39;;;;;;;12.68;6.53;;;410.40;512.00;;;;;;4863309;29;20543;-62
2021/03/07 11:59:06;;;;;;;9.60;6.25;;;410.40;512.00;;;;;;4863051;29;20022;-62
2021/03/07 12:01:32;;;;;;;12.80;6.93;;;410.30;512.00;;;;;;4862496;29;20104;-62
2021/03/07 12:03:58;;;;;;;17.13;9.52;;;410.20;512.00;;;;;;4863032;29;20113;-61
2021/03/07 12:06:24;;;;;;;12.77;8.48;;;410.20;512.00;;;;;;4862864;29;20026;-62
2021/03/07 12:08:50;;;;;;;20.95;12.27;;;410.20;512.00;;;;;;4862564;29;20431;-62
2021/03/07 12:11:16;;;;;;;15.38;10.55;;;410.20;512.00;;;;;;4862746;29;20093;-62
2021/03/07 12:13:42;;;;;;;11.57;7.00;;;410.10;512.00;;;;;;4862976;29;20033;-62
2021/03/07 12:16:08;;;;;;;12.27;7.53;;;410.00;512.00;;;;;;4862124;29;20029;-62
2021/03/07 12:18:38;;;;;;;15.75;10.73;;;410.00;512.00;;;;;;4862727;29;20033;-65